sensor_id;sensor_type;location;lat;lon;timestamp;pressure;altitude;pressure_sealevel;temperature;humidity
11808;BME280;5961;42.640;23.380;2023-03-13T00:01:27;94245.19;;;4.25;55.78
11808;BME280;5961;42.640;23.380;2023-03-13T00:03:54;94235.81;;;4.19;55.94
11808;BME280;5961;42.640;23.380;2023-03-13T00:06:23;94237.97;;;4.17;56.59
11808;BME280;5961;42.640;23.380;2023-03-13T00:08:51;94245.28;;;4.20;55.91
11808;BME280;5961;42.640;23.380;2023-03-13T00:11:17;94229.91;;;4.08;56.51
11808;BME280;5961;42.640;23.380;2023-03-13T00:13:44;94212.31;;;3.90;55.96
11808;BME280;5961;42.640;23.380;2023-03-13T00:16:13;94212.81;;;3.92;56.41
11808;BME280;5961;42.640;23.380;2023-03-13T00:18:44;94240.06;;;4.15;55.67
11808;BME280;5961;42.640;23.380;2023-03-13T00:21:11;94243.00;;;4.13;56.39
11808;BME280;5961;42.640;23.380;2023-03-13T00:23:39;94241.22;;;4.09;56.24
11808;BME280;5961;42.640;23.380;2023-03-13T00:26:07;94251.53;;;4.05;56.41
11808;BME280;5961;42.640;23.380;2023-03-13T00:28:35;94193.44;;;3.69;56.24
11808;BME280;5961;42.640;23.380;2023-03-13T00:31:04;94218.44;;;3.85;56.74
11808;BME280;5961;42.640;23.380;2023-03-13T00:33:31;94251.03;;;4.03;55.88
11808;BME280;5961;42.640;23.380;2023-03-13T00:35:59;94245.00;;;4.03;56.74
11808;BME280;5961;42.640;23.380;2023-03-13T00:38:26;94260.19;;;4.06;56.55
11808;BME280;5961;42.640;23.380;2023-03-13T00:40:59;94258.34;;;4.06;56.27
11808;BME280;5961;42.640;23.380;2023-03-13T00:43:26;94252.53;;;4.09;56.38
11808;BME280;5961;42.640;23.380;2023-03-13T00:45:53;94250.81;;;4.00;56.16
11808;BME280;5961;42.640;23.380;2023-03-13T00:48:20;94259.22;;;4.02;56.35
11808;BME280;5961;42.640;23.380;2023-03-13T00:50:47;94230.50;;;3.68;57.13
11808;BME280;5961;42.640;23.380;2023-03-13T00:53:14;94250.69;;;3.91;56.68
11808;BME280;5961;42.640;23.380;2023-03-13T00:55:50;94242.09;;;3.85;56.67
11808;BME280;5961;42.640;23.380;2023-03-13T00:58:19;94243.09;;;3.90;56.57
11808;BME280;5961;42.640;23.380;2023-03-13T01:00:46;94229.66;;;3.72;56.58
11808;BME280;5961;42.640;23.380;2023-03-13T01:03:13;94238.31;;;3.73;57.08
11808;BME280;5961;42.640;23.380;2023-03-13T01:05:39;94259.00;;;3.79;57.26
11808;BME280;5961;42.640;23.380;2023-03-13T01:08:06;94247.47;;;3.75;57.24
11808;BME280;5961;42.640;23.380;2023-03-13T01:10:33;94251.69;;;3.76;57.37
11808;BME280;5961;42.640;23.380;2023-03-13T01:13:00;94252.69;;;3.80;57.12
11808;BME280;5961;42.640;23.380;2023-03-13T01:15:33;94252.34;;;3.68;57.17
11808;BME280;5961;42.640;23.380;2023-03-13T01:18:00;94247.44;;;3.80;57.58
11808;BME280;5961;42.640;23.380;2023-03-13T01:20:28;94146.84;;;3.19;56.78
11808;BME280;5961;42.640;23.380;2023-03-13T01:22:54;94241.88;;;3.82;56.53
11808;BME280;5961;42.640;23.380;2023-03-13T01:25:21;94243.44;;;3.83;56.81
11808;BME280;5961;42.640;23.380;2023-03-13T01:27:48;94247.56;;;3.89;56.34
11808;BME280;5961;42.640;23.380;2023-03-13T01:30:15;94238.41;;;3.86;56.81
11808;BME280;5961;42.640;23.380;2023-03-13T01:32:43;94254.81;;;3.97;56.25
11808;BME280;5961;42.640;23.380;2023-03-13T01:35:10;94254.72;;;4.02;56.57
11808;BME280;5961;42.640;23.380;2023-03-13T01:37:37;94256.59;;;4.02;57.38
11808;BME280;5961;42.640;23.380;2023-03-13T01:40:04;94260.97;;;4.06;57.46
11808;BME280;5961;42.640;23.380;2023-03-13T01:42:48;94261.28;;;4.05;58.12
11808;BME280;5961;42.640;23.380;2023-03-13T01:45:49;94266.09;;;3.98;57.40
11808;BME280;5961;42.640;23.380;2023-03-13T01:48:21;94233.41;;;3.66;58.01
11808;BME280;5961;42.640;23.380;2023-03-13T01:50:51;94252.16;;;3.78;58.01
11808;BME280;5961;42.640;23.380;2023-03-13T01:53:19;94264.31;;;3.93;58.27
11808;BME280;5961;42.640;23.380;2023-03-13T01:55:46;94273.72;;;3.80;58.65
11808;BME280;5961;42.640;23.380;2023-03-13T01:58:13;94266.88;;;3.79;58.20
11808;BME280;5961;42.640;23.380;2023-03-13T02:00:40;94264.47;;;3.83;58.24
11808;BME280;5961;42.640;23.380;2023-03-13T02:03:11;94266.25;;;3.87;57.82
11808;BME280;5961;42.640;23.380;2023-03-13T02:05:41;94253.75;;;3.79;58.12
11808;BME280;5961;42.640;23.380;2023-03-13T02:08:12;94268.81;;;3.93;58.14
11808;BME280;5961;42.640;23.380;2023-03-13T02:10:49;94276.19;;;3.91;58.28
11808;BME280;5961;42.640;23.380;2023-03-13T02:13:17;94270.38;;;3.94;58.10
11808;BME280;5961;42.640;23.380;2023-03-13T02:15:45;94267.69;;;3.99;57.85
11808;BME280;5961;42.640;23.380;2023-03-13T02:18:12;94271.38;;;3.98;57.65
11808;BME280;5961;42.640;23.380;2023-03-13T02:20:41;94275.63;;;3.94;58.16
11808;BME280;5961;42.640;23.380;2023-03-13T02:23:13;94275.63;;;3.94;58.33
11808;BME280;5961;42.640;23.380;2023-03-13T02:25:46;94283.47;;;3.99;57.95
11808;BME280;5961;42.640;23.380;2023-03-13T02:28:16;94285.53;;;4.02;58.10
11808;BME280;5961;42.640;23.380;2023-03-13T02:30:46;94290.78;;;4.02;58.79
11808;BME280;5961;42.640;23.380;2023-03-13T02:33:14;94274.34;;;3.91;58.20
11808;BME280;5961;42.640;23.380;2023-03-13T02:35:42;94295.31;;;3.96;58.20
11808;BME280;5961;42.640;23.380;2023-03-13T02:38:13;94280.19;;;3.88;58.46
11808;BME280;5961;42.640;23.380;2023-03-13T02:40:45;94292.75;;;3.91;58.37
11808;BME280;5961;42.640;23.380;2023-03-13T02:43:15;94307.75;;;3.91;59.40
11808;BME280;5961;42.640;23.380;2023-03-13T02:45:42;94315.84;;;3.94;58.85
11808;BME280;5961;42.640;23.380;2023-03-13T02:48:30;94321.03;;;3.99;57.96
11808;BME280;5961;42.640;23.380;2023-03-13T02:50:57;94329.13;;;4.03;58.66
11808;BME280;5961;42.640;23.380;2023-03-13T02:53:24;94329.66;;;4.05;58.51
11808;BME280;5961;42.640;23.380;2023-03-13T02:55:52;94332.91;;;3.97;58.98
11808;BME280;5961;42.640;23.380;2023-03-13T02:58:19;94340.75;;;4.02;59.75
11808;BME280;5961;42.640;23.380;2023-03-13T03:00:46;94319.13;;;3.86;59.88
11808;BME280;5961;42.640;23.380;2023-03-13T03:03:12;94327.66;;;3.97;59.55
11808;BME280;5961;42.640;23.380;2023-03-13T03:05:39;94288.34;;;3.68;60.09
11808;BME280;5961;42.640;23.380;2023-03-13T03:08:06;94328.22;;;3.94;60.06
11808;BME280;5961;42.640;23.380;2023-03-13T03:10:34;94331.34;;;3.96;59.93
11808;BME280;5961;42.640;23.380;2023-03-13T03:13:02;94331.28;;;4.01;59.79
11808;BME280;5961;42.640;23.380;2023-03-13T03:15:29;94335.97;;;4.04;59.83
11808;BME280;5961;42.640;23.380;2023-03-13T03:17:56;94327.88;;;4.00;60.02
11808;BME280;5961;42.640;23.380;2023-03-13T03:20:22;94339.09;;;4.06;60.72
11808;BME280;5961;42.640;23.380;2023-03-13T03:22:49;94334.56;;;3.93;60.48
11808;BME280;5961;42.640;23.380;2023-03-13T03:25:16;94348.13;;;4.00;61.20
11808;BME280;5961;42.640;23.380;2023-03-13T03:27:43;94357.56;;;4.01;60.98
11808;BME280;5961;42.640;23.380;2023-03-13T03:30:11;94358.94;;;3.98;61.05
11808;BME280;5961;42.640;23.380;2023-03-13T03:32:38;94365.88;;;3.89;61.07
11808;BME280;5961;42.640;23.380;2023-03-13T03:35:05;94369.63;;;3.83;60.30
11808;BME280;5961;42.640;23.380;2023-03-13T03:37:32;94374.03;;;3.87;60.35
11808;BME280;5961;42.640;23.380;2023-03-13T03:39:59;94378.97;;;3.70;60.80
11808;BME280;5961;42.640;23.380;2023-03-13T03:42:25;94359.63;;;3.61;60.12
11808;BME280;5961;42.640;23.380;2023-03-13T03:44:52;94381.38;;;3.67;60.51
11808;BME280;5961;42.640;23.380;2023-03-13T03:47:20;94386.16;;;3.65;60.75
11808;BME280;5961;42.640;23.380;2023-03-13T03:49:47;94376.03;;;3.53;60.90
11808;BME280;5961;42.640;23.380;2023-03-13T03:52:14;94398.59;;;3.54;61.91
11808;BME280;5961;42.640;23.380;2023-03-13T03:54:40;94410.19;;;3.53;62.15
11808;BME280;5961;42.640;23.380;2023-03-13T03:57:07;94402.63;;;3.47;61.92
11808;BME280;5961;42.640;23.380;2023-03-13T03:59:34;94396.34;;;3.43;61.59
11808;BME280;5961;42.640;23.380;2023-03-13T04:02:01;94390.88;;;3.39;61.89
11808;BME280;5961;42.640;23.380;2023-03-13T04:04:29;94404.41;;;3.51;61.93
11808;BME280;5961;42.640;23.380;2023-03-13T04:06:55;94415.72;;;3.52;61.99
11808;BME280;5961;42.640;23.380;2023-03-13T04:09:22;94410.78;;;3.45;62.18
11808;BME280;5961;42.640;23.380;2023-03-13T04:11:49;94417.31;;;3.48;62.42
11808;BME280;5961;42.640;23.380;2023-03-13T04:14:15;94417.84;;;3.50;63.00
11808;BME280;5961;42.640;23.380;2023-03-13T04:16:42;94425.50;;;3.46;62.28
11808;BME280;5961;42.640;23.380;2023-03-13T04:19:09;94435.44;;;3.49;62.56
11808;BME280;5961;42.640;23.380;2023-03-13T04:21:37;94427.66;;;3.39;61.83
11808;BME280;5961;42.640;23.380;2023-03-13T04:24:04;94428.75;;;3.33;61.98
11808;BME280;5961;42.640;23.380;2023-03-13T04:26:31;94426.50;;;3.21;61.98
11808;BME280;5961;42.640;23.380;2023-03-13T04:28:57;94452.72;;;3.26;62.54
11808;BME280;5961;42.640;23.380;2023-03-13T04:31:24;94442.25;;;3.21;63.13
11808;BME280;5961;42.640;23.380;2023-03-13T04:33:51;94444.16;;;3.16;63.29
11808;BME280;5961;42.640;23.380;2023-03-13T04:36:18;94443.31;;;3.20;63.50
11808;BME280;5961;42.640;23.380;2023-03-13T04:38:46;94453.81;;;3.20;63.23
11808;BME280;5961;42.640;23.380;2023-03-13T04:41:12;94451.97;;;3.21;63.49
11808;BME280;5961;42.640;23.380;2023-03-13T04:43:39;94452.09;;;3.06;64.32
11808;BME280;5961;42.640;23.380;2023-03-13T04:46:06;94461.50;;;3.12;64.77
11808;BME280;5961;42.640;23.380;2023-03-13T04:48:32;94470.72;;;3.09;65.75
11808;BME280;5961;42.640;23.380;2023-03-13T04:50:59;94471.50;;;3.10;65.76
11808;BME280;5961;42.640;23.380;2023-03-13T04:53:26;94481.53;;;3.03;66.17
11808;BME280;5961;42.640;23.380;2023-03-13T04:55:54;94483.03;;;3.14;65.37
11808;BME280;5961;42.640;23.380;2023-03-13T04:58:21;94481.22;;;3.09;65.41
11808;BME280;5961;42.640;23.380;2023-03-13T05:00:47;94453.25;;;2.95;65.33
11808;BME280;5961;42.640;23.380;2023-03-13T05:03:14;94479.09;;;3.11;65.07
11808;BME280;5961;42.640;23.380;2023-03-13T05:05:41;94477.00;;;3.13;64.72
11808;BME280;5961;42.640;23.380;2023-03-13T05:08:07;94486.91;;;3.21;65.36
11808;BME280;5961;42.640;23.380;2023-03-13T05:10:35;94487.66;;;3.27;65.30
11808;BME280;5961;42.640;23.380;2023-03-13T05:13:03;94480.56;;;3.27;64.86
11808;BME280;5961;42.640;23.380;2023-03-13T05:15:29;94487.34;;;3.33;65.09
11808;BME280;5961;42.640;23.380;2023-03-13T05:17:56;94476.88;;;3.28;65.01
11808;BME280;5961;42.640;23.380;2023-03-13T05:20:23;94475.03;;;3.29;64.40
11808;BME280;5961;42.640;23.380;2023-03-13T05:22:50;94491.78;;;3.38;64.38
11808;BME280;5961;42.640;23.380;2023-03-13T05:25:16;94502.47;;;3.47;64.73
11808;BME280;5961;42.640;23.380;2023-03-13T05:27:44;94510.06;;;3.48;64.51
11808;BME280;5961;42.640;23.380;2023-03-13T05:30:13;94493.31;;;3.39;64.73
11808;BME280;5961;42.640;23.380;2023-03-13T05:32:39;94514.31;;;3.44;63.65
11808;BME280;5961;42.640;23.380;2023-03-13T05:35:07;94511.66;;;3.49;63.33
11808;BME280;5961;42.640;23.380;2023-03-13T05:37:33;94511.97;;;3.43;62.26
11808;BME280;5961;42.640;23.380;2023-03-13T05:40:00;94524.34;;;3.37;62.13
11808;BME280;5961;42.640;23.380;2023-03-13T05:42:27;94518.06;;;3.33;62.49
11808;BME280;5961;42.640;23.380;2023-03-13T05:44:53;94524.97;;;3.24;62.97
11808;BME280;5961;42.640;23.380;2023-03-13T05:47:22;94525.28;;;3.17;63.09
11808;BME280;5961;42.640;23.380;2023-03-13T05:49:48;94529.75;;;3.17;63.44
11808;BME280;5961;42.640;23.380;2023-03-13T05:52:15;94516.41;;;3.13;64.05
11808;BME280;5961;42.640;23.380;2023-03-13T05:54:42;94489.50;;;2.93;64.08
11808;BME280;5961;42.640;23.380;2023-03-13T05:57:09;94526.72;;;3.00;64.84
11808;BME280;5961;42.640;23.380;2023-03-13T05:59:35;94526.69;;;3.05;65.14
11808;BME280;5961;42.640;23.380;2023-03-13T06:02:02;94490.59;;;2.87;65.20
11808;BME280;5961;42.640;23.380;2023-03-13T06:04:30;94530.09;;;3.05;65.72
11808;BME280;5961;42.640;23.380;2023-03-13T06:06:57;94542.13;;;3.16;65.63
11808;BME280;5961;42.640;23.380;2023-03-13T06:09:24;94521.94;;;3.07;65.30
11808;BME280;5961;42.640;23.380;2023-03-13T06:11:50;94541.53;;;3.24;65.54
11808;BME280;5961;42.640;23.380;2023-03-13T06:14:17;94531.25;;;3.28;66.06
11808;BME280;5961;42.640;23.380;2023-03-13T06:16:44;94539.34;;;3.37;65.92
11808;BME280;5961;42.640;23.380;2023-03-13T06:19:11;94539.50;;;3.50;65.21
11808;BME280;5961;42.640;23.380;2023-03-13T06:21:39;94493.69;;;3.27;64.67
11808;BME280;5961;42.640;23.380;2023-03-13T06:24:06;94495.28;;;3.28;64.54
11808;BME280;5961;42.640;23.380;2023-03-13T06:26:32;94533.41;;;3.55;63.78
11808;BME280;5961;42.640;23.380;2023-03-13T06:28:59;94549.13;;;3.60;63.06
11808;BME280;5961;42.640;23.380;2023-03-13T06:31:26;94550.16;;;3.64;63.04
11808;BME280;5961;42.640;23.380;2023-03-13T06:33:53;94546.47;;;3.65;63.48
11808;BME280;5961;42.640;23.380;2023-03-13T06:36:20;94571.91;;;3.69;63.00
11808;BME280;5961;42.640;23.380;2023-03-13T06:38:48;94553.75;;;3.73;62.98
11808;BME280;5961;42.640;23.380;2023-03-13T06:41:15;94536.75;;;3.60;63.58
11808;BME280;5961;42.640;23.380;2023-03-13T06:43:42;94510.63;;;3.45;63.91
11808;BME280;5961;42.640;23.380;2023-03-13T06:46:15;94530.47;;;3.61;63.25
11808;BME280;5961;42.640;23.380;2023-03-13T06:48:42;94526.25;;;3.60;64.42
11808;BME280;5961;42.640;23.380;2023-03-13T06:51:10;94522.63;;;3.56;64.48
11808;BME280;5961;42.640;23.380;2023-03-13T06:53:37;94522.78;;;3.36;65.33
11808;BME280;5961;42.640;23.380;2023-03-13T06:56:06;94530.63;;;3.41;64.67
11808;BME280;5961;42.640;23.380;2023-03-13T06:58:33;94540.81;;;3.48;64.69
11808;BME280;5961;42.640;23.380;2023-03-13T07:01:05;94519.09;;;3.37;64.91
11808;BME280;5961;42.640;23.380;2023-03-13T07:03:32;94530.09;;;3.44;64.33
11808;BME280;5961;42.640;23.380;2023-03-13T07:05:59;94522.22;;;3.44;64.82
11808;BME280;5961;42.640;23.380;2023-03-13T07:08:26;94516.94;;;3.44;64.45
11808;BME280;5961;42.640;23.380;2023-03-13T07:10:57;94522.16;;;3.49;64.20
11808;BME280;5961;42.640;23.380;2023-03-13T07:13:26;94522.94;;;3.50;64.13
11808;BME280;5961;42.640;23.380;2023-03-13T07:15:53;94513.28;;;3.40;63.71
11808;BME280;5961;42.640;23.380;2023-03-13T07:18:20;94511.16;;;3.42;63.42
11808;BME280;5961;42.640;23.380;2023-03-13T07:20:51;94526.81;;;3.57;63.62
11808;BME280;5961;42.640;23.380;2023-03-13T07:23:18;94527.34;;;3.59;62.94
11808;BME280;5961;42.640;23.380;2023-03-13T07:25:52;94524.66;;;3.64;62.38
11808;BME280;5961;42.640;23.380;2023-03-13T07:28:19;94515.97;;;3.64;61.85
11808;BME280;5961;42.640;23.380;2023-03-13T07:30:47;94529.03;;;3.74;61.31
11808;BME280;5961;42.640;23.380;2023-03-13T07:33:13;94523.00;;;3.73;61.79
11808;BME280;5961;42.640;23.380;2023-03-13T07:35:40;94533.91;;;3.85;61.76
11808;BME280;5961;42.640;23.380;2023-03-13T07:38:07;94525.75;;;3.87;62.48
11808;BME280;5961;42.640;23.380;2023-03-13T07:40:33;94517.59;;;3.88;63.23
11808;BME280;5961;42.640;23.380;2023-03-13T07:43:00;94518.63;;;3.93;64.91
11808;BME280;5961;42.640;23.380;2023-03-13T07:45:27;94520.78;;;3.85;66.38
11808;BME280;5961;42.640;23.380;2023-03-13T07:47:55;94524.91;;;3.92;67.22
11808;BME280;5961;42.640;23.380;2023-03-13T07:50:22;94517.25;;;3.95;67.05
11808;BME280;5961;42.640;23.380;2023-03-13T07:52:49;94518.56;;;3.98;66.42
11808;BME280;5961;42.640;23.380;2023-03-13T07:55:15;94524.38;;;3.95;67.81
11808;BME280;5961;42.640;23.380;2023-03-13T07:57:42;94522.78;;;3.94;67.37
11808;BME280;5961;42.640;23.380;2023-03-13T08:00:10;94522.47;;;4.00;67.07
11808;BME280;5961;42.640;23.380;2023-03-13T08:02:40;94506.91;;;4.04;67.53
11808;BME280;5961;42.640;23.380;2023-03-13T08:05:10;94512.63;;;4.11;67.44
11808;BME280;5961;42.640;23.380;2023-03-13T08:07:36;94509.72;;;4.12;67.35
11808;BME280;5961;42.640;23.380;2023-03-13T08:10:03;94507.56;;;4.14;67.25
11808;BME280;5961;42.640;23.380;2023-03-13T08:12:30;94511.38;;;4.27;67.46
11808;BME280;5961;42.640;23.380;2023-03-13T08:14:57;94511.28;;;4.37;67.18
11808;BME280;5961;42.640;23.380;2023-03-13T08:17:24;94494.94;;;4.40;66.43
11808;BME280;5961;42.640;23.380;2023-03-13T08:19:50;94504.31;;;4.46;65.22
11808;BME280;5961;42.640;23.380;2023-03-13T08:22:18;94500.28;;;4.54;66.01
11808;BME280;5961;42.640;23.380;2023-03-13T08:24:45;94504.97;;;4.57;65.16
11808;BME280;5961;42.640;23.380;2023-03-13T08:27:12;94514.09;;;4.64;64.93
11808;BME280;5961;42.640;23.380;2023-03-13T08:29:38;94510.34;;;4.70;65.02
11808;BME280;5961;42.640;23.380;2023-03-13T08:32:05;94504.19;;;4.75;64.72
11808;BME280;5961;42.640;23.380;2023-03-13T08:34:32;94506.50;;;4.81;63.94
11808;BME280;5961;42.640;23.380;2023-03-13T08:36:59;94512.63;;;4.95;64.33
11808;BME280;5961;42.640;23.380;2023-03-13T08:39:27;94515.19;;;5.01;63.52
11808;BME280;5961;42.640;23.380;2023-03-13T08:41:54;94516.75;;;5.02;63.18
11808;BME280;5961;42.640;23.380;2023-03-13T08:44:20;94523.16;;;4.95;62.22
11808;BME280;5961;42.640;23.380;2023-03-13T08:46:47;94525.16;;;5.04;62.41
11808;BME280;5961;42.640;23.380;2023-03-13T08:49:14;94525.94;;;5.04;62.49
11808;BME280;5961;42.640;23.380;2023-03-13T08:51:42;94504.78;;;4.90;61.62
11808;BME280;5961;42.640;23.380;2023-03-13T08:54:09;94518.75;;;5.10;61.26
11808;BME280;5961;42.640;23.380;2023-03-13T08:56:37;94506.28;;;5.15;61.07
11808;BME280;5961;42.640;23.380;2023-03-13T08:59:05;94512.34;;;5.16;60.98
11808;BME280;5961;42.640;23.380;2023-03-13T09:01:33;94505.47;;;5.15;60.96
11808;BME280;5961;42.640;23.380;2023-03-13T09:04:00;94507.47;;;5.23;62.19
11808;BME280;5961;42.640;23.380;2023-03-13T09:06:27;94510.63;;;5.25;61.30
11808;BME280;5961;42.640;23.380;2023-03-13T09:08:55;94513.38;;;5.33;60.48
11808;BME280;5961;42.640;23.380;2023-03-13T09:11:22;94499.41;;;5.33;60.69
11808;BME280;5961;42.640;23.380;2023-03-13T09:13:50;94508.72;;;5.44;60.11
11808;BME280;5961;42.640;23.380;2023-03-13T09:16:18;94484.88;;;5.35;59.98
11808;BME280;5961;42.640;23.380;2023-03-13T09:18:46;94383.38;;;4.73;59.74
11808;BME280;5961;42.640;23.380;2023-03-13T09:21:17;94448.03;;;5.17;59.56
11808;BME280;5961;42.640;23.380;2023-03-13T09:23:44;94503.19;;;5.59;59.75
11808;BME280;5961;42.640;23.380;2023-03-13T09:26:11;94484.25;;;5.57;59.85
11808;BME280;5961;42.640;23.380;2023-03-13T09:28:39;94491.69;;;5.69;59.53
11808;BME280;5961;42.640;23.380;2023-03-13T09:31:09;94510.84;;;5.74;59.11
11808;BME280;5961;42.640;23.380;2023-03-13T09:33:36;94492.38;;;5.74;59.34
11808;BME280;5961;42.640;23.380;2023-03-13T09:36:03;94485.97;;;5.80;59.23
11808;BME280;5961;42.640;23.380;2023-03-13T09:38:31;94496.94;;;5.87;58.14
11808;BME280;5961;42.640;23.380;2023-03-13T09:41:03;94508.50;;;5.91;58.20
11808;BME280;5961;42.640;23.380;2023-03-13T09:43:39;94504.59;;;5.89;59.46
11808;BME280;5961;42.640;23.380;2023-03-13T09:46:15;94480.50;;;5.77;58.72
11808;BME280;5961;42.640;23.380;2023-03-13T09:48:45;94499.31;;;6.02;59.12
11808;BME280;5961;42.640;23.380;2023-03-13T09:51:17;94498.53;;;6.02;59.71
11808;BME280;5961;42.640;23.380;2023-03-13T09:53:50;94423.50;;;5.62;58.66
11808;BME280;5961;42.640;23.380;2023-03-13T09:56:21;94485.44;;;6.11;58.01
11808;BME280;5961;42.640;23.380;2023-03-13T09:58:53;94465.50;;;6.04;57.29
11808;BME280;5961;42.640;23.380;2023-03-13T10:01:25;94488.28;;;6.28;56.73
11808;BME280;5961;42.640;23.380;2023-03-13T10:04:00;94494.94;;;6.39;57.38
11808;BME280;5961;42.640;23.380;2023-03-13T10:06:34;94492.97;;;6.44;56.72
11808;BME280;5961;42.640;23.380;2023-03-13T10:09:01;94487.41;;;6.46;56.50
11808;BME280;5961;42.640;23.380;2023-03-13T10:11:32;94488.75;;;6.57;56.60
11808;BME280;5961;42.640;23.380;2023-03-13T10:14:06;94486.91;;;6.57;56.04
11808;BME280;5961;42.640;23.380;2023-03-13T10:16:41;94434.78;;;6.36;56.02
11808;BME280;5961;42.640;23.380;2023-03-13T10:19:12;94466.16;;;6.65;56.07
11808;BME280;5961;42.640;23.380;2023-03-13T10:21:42;94465.63;;;6.76;55.59
11808;BME280;5961;42.640;23.380;2023-03-13T10:24:16;94462.59;;;6.83;55.39
11808;BME280;5961;42.640;23.380;2023-03-13T10:26:44;94458.25;;;6.87;55.19
11808;BME280;5961;42.640;23.380;2023-03-13T10:29:22;94286.91;;;5.91;55.04
11808;BME280;5961;42.640;23.380;2023-03-13T10:31:55;94438.16;;;6.99;54.86
11808;BME280;5961;42.640;23.380;2023-03-13T10:34:23;94431.69;;;7.05;55.12
11808;BME280;5961;42.640;23.380;2023-03-13T10:36:54;94435.94;;;7.15;55.25
11808;BME280;5961;42.640;23.380;2023-03-13T10:39:24;94441.09;;;7.20;57.09
11808;BME280;5961;42.640;23.380;2023-03-13T10:41:56;94434.34;;;7.28;55.77
11808;BME280;5961;42.640;23.380;2023-03-13T10:44:29;94408.91;;;7.18;54.94
11808;BME280;5961;42.640;23.380;2023-03-13T10:47:00;94431.97;;;7.48;55.90
11808;BME280;5961;42.640;23.380;2023-03-13T10:49:27;94372.09;;;7.22;54.19
11808;BME280;5961;42.640;23.380;2023-03-13T10:51:55;94417.91;;;7.61;54.35
11808;BME280;5961;42.640;23.380;2023-03-13T10:54:24;94397.63;;;7.57;53.85
11808;BME280;5961;42.640;23.380;2023-03-13T10:57:06;94415.16;;;7.75;53.99
11808;BME280;5961;42.640;23.380;2023-03-13T10:59:38;94416.16;;;7.88;52.86
11808;BME280;5961;42.640;23.380;2023-03-13T11:02:20;94405.41;;;7.93;52.76
11808;BME280;5961;42.640;23.380;2023-03-13T11:04:47;94416.66;;;8.07;52.00
11808;BME280;5961;42.640;23.380;2023-03-13T11:07:20;94409.69;;;8.19;52.76
11808;BME280;5961;42.640;23.380;2023-03-13T11:09:56;94404.63;;;8.32;51.71
11808;BME280;5961;42.640;23.380;2023-03-13T11:12:24;94403.25;;;8.43;50.56
11808;BME280;5961;42.640;23.380;2023-03-13T11:14:56;94381.75;;;8.53;52.06
11808;BME280;5961;42.640;23.380;2023-03-13T11:17:30;94389.56;;;8.75;52.50
11808;BME280;5961;42.640;23.380;2023-03-13T11:20:07;94384.88;;;8.89;51.06
11808;BME280;5961;42.640;23.380;2023-03-13T11:22:46;94374.28;;;8.98;49.86
11808;BME280;5961;42.640;23.380;2023-03-13T11:25:20;94380.38;;;9.15;49.04
11808;BME280;5961;42.640;23.380;2023-03-13T11:27:57;94372.06;;;9.25;48.95
11808;BME280;5961;42.640;23.380;2023-03-13T11:30:44;94366.88;;;9.37;49.53
11808;BME280;5961;42.640;23.380;2023-03-13T11:33:23;94364.66;;;9.57;48.26
11808;BME280;5961;42.640;23.380;2023-03-13T11:35:58;94367.44;;;9.69;47.76
11808;BME280;5961;42.640;23.380;2023-03-13T11:38:28;94369.69;;;9.87;47.32
11808;BME280;5961;42.640;23.380;2023-03-13T11:41:10;94358.84;;;10.01;47.28
11808;BME280;5961;42.640;23.380;2023-03-13T11:43:49;94356.78;;;10.15;46.92
11808;BME280;5961;42.640;23.380;2023-03-13T11:46:24;94334.25;;;10.13;46.06
11808;BME280;5961;42.640;23.380;2023-03-13T11:49:17;94343.66;;;10.39;46.33
11808;BME280;5961;42.640;23.380;2023-03-13T11:51:59;94329.84;;;10.46;45.83
11808;BME280;5961;42.640;23.380;2023-03-13T11:57:24;94338.31;;;10.69;45.25
11808;BME280;5961;42.640;23.380;2023-03-13T12:00:06;94329.16;;;10.78;44.64
11808;BME280;5961;42.640;23.380;2023-03-13T12:02:41;94329.78;;;10.96;44.22
11808;BME280;5961;42.640;23.380;2023-03-13T12:05:17;94324.69;;;11.03;43.49
11808;BME280;5961;42.640;23.380;2023-03-13T12:07:48;94308.09;;;11.06;43.43
11808;BME280;5961;42.640;23.380;2023-03-13T12:10:18;94315.44;;;11.21;42.73
11808;BME280;5961;42.640;23.380;2023-03-13T12:12:50;94311.50;;;11.39;41.50
11808;BME280;5961;42.640;23.380;2023-03-13T12:15:22;94310.84;;;11.54;41.78
11808;BME280;5961;42.640;23.380;2023-03-13T12:17:55;94310.88;;;11.67;40.58
11808;BME280;5961;42.640;23.380;2023-03-13T12:20:28;94305.69;;;11.70;39.74
11808;BME280;5961;42.640;23.380;2023-03-13T12:23:13;94303.59;;;11.76;39.48
11808;BME280;5961;42.640;23.380;2023-03-13T12:25:46;94287.38;;;11.69;40.42
11808;BME280;5961;42.640;23.380;2023-03-13T12:28:22;94290.06;;;11.81;40.62
11808;BME280;5961;42.640;23.380;2023-03-13T12:30:58;94292.72;;;11.93;41.28
11808;BME280;5961;42.640;23.380;2023-03-13T12:33:30;94293.41;;;12.02;41.08
11808;BME280;5961;42.640;23.380;2023-03-13T12:36:03;94248.56;;;11.80;40.25
11808;BME280;5961;42.640;23.380;2023-03-13T12:38:36;94285.59;;;12.21;40.07
11808;BME280;5961;42.640;23.380;2023-03-13T12:41:14;94291.56;;;12.30;40.20
11808;BME280;5961;42.640;23.380;2023-03-13T12:43:46;94293.34;;;12.38;39.46
11808;BME280;5961;42.640;23.380;2023-03-13T12:46:41;94285.09;;;12.43;39.09
11808;BME280;5961;42.640;23.380;2023-03-13T12:55:29;94290.06;;;12.85;37.43
11808;BME280;5961;42.640;23.380;2023-03-13T12:58:12;94292.94;;;12.92;36.98
11808;BME280;5961;42.640;23.380;2023-03-13T13:00:43;94294.69;;;13.00;37.47
11808;BME280;5961;42.640;23.380;2023-03-13T13:03:20;94291.91;;;12.96;38.04
11808;BME280;5961;42.640;23.380;2023-03-13T13:06:02;94273.41;;;12.88;37.43
11808;BME280;5961;42.640;23.380;2023-03-13T13:08:34;94293.13;;;13.11;37.46
11808;BME280;5961;42.640;23.380;2023-03-13T13:11:34;94295.47;;;13.28;37.05
11808;BME280;5961;42.640;23.380;2023-03-13T13:14:01;94293.38;;;13.22;35.75
11808;BME280;5961;42.640;23.380;2023-03-13T13:16:32;94295.91;;;13.30;37.07
11808;BME280;5961;42.640;23.380;2023-03-13T13:22:47;94281.69;;;13.26;36.59
11808;BME280;5961;42.640;23.380;2023-03-13T13:25:33;94243.84;;;13.08;37.31
11808;BME280;5961;42.640;23.380;2023-03-13T13:28:23;94284.03;;;13.43;36.25
11808;BME280;5961;42.640;23.380;2023-03-13T13:30:53;94285.06;;;13.54;35.90
11808;BME280;5961;42.640;23.380;2023-03-13T13:33:38;94283.53;;;13.53;35.53
11808;BME280;5961;42.640;23.380;2023-03-13T13:36:30;94275.94;;;13.55;36.90